Time;durP1;ratioP1;P1;durP2;ratioP2;P2;SDS_P1;SDS_P2;PMS_P1;PMS_P2;Temp;Humidity;BMP_temperature;BMP_pressure;BME280_temperature;BME280_humidity;BME280_pressure;Samples;Min_cycle;Max_cycle;Signal;HPM_P1;HPM_P2
2023/02/09 00:00:00;;;;;;;;;;;1.70;99.90;2.40;100997.00;;;;336407;28;89839;-95
2023/02/09 00:00:13;;;;;;;;;;;1.70;99.90;2.30;101013.00;;;;336691;28;82620;-95
2023/02/09 00:00:25;;;;;;;;;;;1.70;99.90;2.30;101003.00;;;;336296;28;90232;-95
2023/02/09 00:00:37;;;;;;;;;;;1.70;99.90;2.30;100997.00;;;;335337;29;82370;-95
2023/02/09 00:00:49;;;;;;;;;;;1.70;99.90;2.20;100995.00;;;;336479;28;90138;-95
2023/02/09 00:01:02;;;;;;;;;;;1.70;99.90;2.20;101004.00;;;;335485;29;82427;-96
2023/02/09 00:01:16;;;;;;;;;;;1.70;99.90;2.30;101005.00;;;;336390;28;88927;-95
2023/02/09 00:01:29;;;;;;;;;;;1.70;99.90;2.30;100995.00;;;;338145;28;83525;-95
2023/02/09 00:01:41;;;;;;;;;;;1.70;99.90;2.30;101008.00;;;;336316;28;90316;-96
2023/02/09 00:01:53;;;;;;;;;;;1.60;99.90;2.50;101005.00;;;;335502;29;83402;-95
2023/02/09 00:02:05;;;;;;;;;;;1.60;99.90;2.50;101002.00;;;;337772;28;89860;-95
2023/02/09 00:02:16;;;;;;;;;;;1.70;99.90;2.30;100998.00;;;;336828;28;82544;-95
2023/02/09 00:02:29;;;;;;;;;;;1.60;99.90;2.30;101004.00;;;;336409;28;90759;-96
2023/02/09 00:02:40;;;;;;;;;;;1.60;99.90;2.40;101008.00;;;;338109;28;83114;-95
2023/02/09 00:02:52;;;;;;;;;;;1.60;99.90;2.40;101001.00;;;;337648;28;91524;-95
2023/02/09 00:03:04;;;;;;;;;;;1.70;99.90;2.30;101002.00;;;;335371;29;83491;-95
2023/02/09 00:03:16;;;;;;;;;;;1.60;99.90;2.30;101001.00;;;;336091;28;91466;-96
2023/02/09 00:03:28;;;;;;;;;;;1.60;99.90;2.40;101001.00;;;;336798;28;83356;-96
2023/02/09 00:03:40;;;;;;;;;;;1.60;99.90;2.40;101003.00;;;;336041;28;92481;-95
2023/02/09 00:03:52;;;;;;;;;;;1.60;99.90;2.30;101000.00;;;;336751;28;83499;-95
2023/02/09 00:04:04;;;;;;;;;;;1.60;99.90;2.30;101006.00;;;;337478;28;89741;-95
2023/02/09 00:04:15;;;;;;;;;;;1.60;99.90;2.40;100997.00;;;;336741;28;82489;-96
2023/02/09 00:04:27;;;;;;;;;;;1.60;99.90;2.30;101002.00;;;;337752;28;90881;-95
2023/02/09 00:04:39;;;;;;;;;;;1.60;99.90;2.30;101000.00;;;;334295;29;82320;-95
2023/02/09 00:04:51;;;;;;;;;;;1.60;99.90;2.40;101005.00;;;;336399;28;91238;-95
2023/02/09 00:05:02;;;;;;;;;;;1.60;99.90;2.40;101007.00;;;;339355;28;83451;-95
2023/02/09 00:05:14;;;;;;;;;;;1.60;99.90;2.40;101000.00;;;;335060;29;91786;-95
2023/02/09 00:05:26;;;;;;;;;;;1.60;99.90;2.40;101006.00;;;;335567;29;82620;-95
2023/02/09 00:05:38;;;;;;;;;;;1.60;99.90;2.30;101010.00;;;;336408;28;91160;-94
2023/02/09 00:05:50;;;;;;;;;;;1.60;99.90;2.10;101000.00;;;;338077;28;82539;-96
2023/02/09 00:06:02;;;;;;;;;;;1.60;99.90;2.20;101014.00;;;;336359;28;90851;-94
2023/02/09 00:06:16;;;;;;;;;;;1.60;99.90;2.10;101013.00;;;;334158;29;82328;-95
2023/02/09 00:06:29;;;;;;;;;;;1.60;99.90;2.10;101011.00;;;;337500;28;91239;-95
2023/02/09 00:06:40;;;;;;;;;;;1.60;99.90;2.10;101014.00;;;;338115;28;83390;-94
2023/02/09 00:06:52;;;;;;;;;;;1.60;99.90;2.10;101010.00;;;;334976;29;90373;-96
2023/02/09 00:07:04;;;;;;;;;;;1.50;99.90;2.00;101011.00;;;;335410;29;83538;-96
2023/02/09 00:07:16;;;;;;;;;;;1.50;99.90;1.90;101010.00;;;;337510;28;90606;-95
2023/02/09 00:07:28;;;;;;;;;;;1.50;99.90;1.90;101004.00;;;;338032;28;83344;-95
2023/02/09 00:07:39;;;;;;;;;;;1.50;99.90;2.00;101011.00;;;;335010;29;91653;-95
2023/02/09 00:07:51;;;;;;;;;;;1.50;99.90;2.00;101019.00;;;;336677;28;83632;-95
2023/02/09 00:08:03;;;;;;;;;;;1.50;99.90;2.10;101019.00;;;;336230;28;89368;-94
2023/02/09 00:08:15;;;;;;;;;;;1.50;99.90;2.20;101009.00;;;;336762;28;82503;-95
2023/02/09 00:08:27;;;;;;;;;;;1.50;99.90;2.20;101007.00;;;;336159;28;91876;-95
2023/02/09 00:08:39;;;;;;;;;;;1.50;99.90;2.20;101011.00;;;;336807;28;82492;-95
2023/02/09 00:08:50;;;;;;;;;;;1.50;99.90;2.20;101013.00;;;;336408;28;92028;-95
2023/02/09 00:09:02;;;;;;;;;;;1.50;99.90;2.10;101009.00;;;;337859;28;83362;-95
2023/02/09 00:09:14;;;;;;;;;;;1.50;99.90;2.20;101011.00;;;;336205;28;92548;-94
2023/02/09 00:09:26;;;;;;;;;;;1.50;99.90;2.20;101008.00;;;;338132;28;82585;-94
2023/02/09 00:09:38;;;;;;;;;;;1.50;99.90;2.20;101020.00;;;;337665;28;91814;-94
2023/02/09 00:09:50;;;;;;;;;;;1.50;99.90;2.20;101010.00;;;;339519;28;83411;-94
2023/02/09 00:10:03;;;;;;;;;;;1.40;99.90;2.20;101011.00;;;;335086;29;88968;-96
2023/02/09 00:10:15;;;;;;;;;;;1.50;99.90;2.20;101005.00;;;;335438;29;82333;-93
2023/02/09 00:10:27;;;;;;;;;;;1.40;99.90;2.20;101009.00;;;;339038;28;89592;-95
2023/02/09 00:10:39;;;;;;;;;;;1.50;99.90;2.20;101016.00;;;;339501;28;82595;-94
2023/02/09 00:10:50;;;;;;;;;;;1.40;99.90;2.20;101004.00;;;;336492;28;90383;-95
2023/02/09 00:11:07;;;;;;;;;;;1.50;99.90;2.20;101005.00;;;;336789;28;82486;-95
2023/02/09 00:13:21;;;;;;;;;;;1.50;99.90;2.10;101010.00;;;;336305;28;93030;-95
2023/02/09 00:13:26;;;;;;;;;;;1.40;99.90;2.20;101021.00;;;;336212;28;90784;-96
2023/02/09 00:13:38;;;;;;;;;;;1.40;99.90;2.30;101013.00;;;;332949;29;83268;-95
2023/02/09 00:13:49;;;;;;;;;;;1.40;99.90;2.20;101014.00;;;;336499;28;90461;-94
2023/02/09 00:14:01;;;;;;;;;;;1.40;99.90;2.10;101021.00;;;;338149;28;82585;-95
2023/02/09 00:14:15;;;;;;;;;;;1.40;99.90;2.00;101028.00;;;;336362;28;89427;-94
2023/02/09 00:14:27;;;;;;;;;;;1.40;99.90;2.20;101013.00;;;;338220;28;82407;-96
2023/02/09 00:14:38;;;;;;;;;;;1.40;99.90;2.20;101014.00;;;;335276;29;90744;-96
2023/02/09 00:14:50;;;;;;;;;;;1.40;99.90;2.10;101014.00;;;;336677;28;82515;-95
2023/02/09 00:15:03;;;;;;;;;;;1.40;99.90;2.00;101015.00;;;;336363;28;89631;-95
2023/02/09 00:15:14;;;;;;;;;;;1.40;99.90;2.10;101018.00;;;;334359;29;83281;-94
2023/02/09 00:15:26;;;;;;;;;;;1.40;99.90;2.20;101014.00;;;;336409;28;90868;-95
2023/02/09 00:15:39;;;;;;;;;;;1.40;99.90;2.30;101013.00;;;;338214;28;83546;-95
2023/02/09 00:16:00;;;;;;;;;;;1.40;99.90;2.10;101018.00;;;;337789;28;90006;-95
2023/02/09 00:16:12;;;;;;;;;;;1.40;99.90;2.20;101018.00;;;;334110;29;82607;-95
2023/02/09 00:16:24;;;;;;;;;;;1.40;99.90;2.10;101012.00;;;;337609;28;90599;-96
2023/02/09 00:16:36;;;;;;;;;;;1.40;99.90;2.10;101012.00;;;;336933;28;82451;-96
2023/02/09 00:16:49;;;;;;;;;;;1.40;99.90;2.20;101014.00;;;;334971;29;90913;-96
2023/02/09 00:17:01;;;;;;;;;;;1.40;99.90;2.10;101009.00;;;;338312;28;82515;-96
2023/02/09 00:17:13;;;;;;;;;;;1.40;99.90;2.00;101018.00;;;;335223;29;90768;-94
2023/02/09 00:17:24;;;;;;;;;;;1.40;99.90;2.00;101013.00;;;;336862;28;83475;-95
2023/02/09 00:17:36;;;;;;;;;;;1.40;99.90;2.10;101018.00;;;;335288;29;90502;-95
2023/02/09 00:17:48;;;;;;;;;;;1.40;99.90;2.10;101015.00;;;;334458;29;83468;-95
2023/02/09 00:18:00;;;;;;;;;;;1.40;99.90;2.00;101012.00;;;;336748;28;90540;-95
2023/02/09 00:18:12;;;;;;;;;;;1.40;99.90;2.10;101019.00;;;;336875;29;82627;-94
2023/02/09 00:18:24;;;;;;;;;;;1.40;99.90;2.00;101011.00;;;;337969;28;90305;-95
2023/02/09 00:18:36;;;;;;;;;;;1.40;99.90;2.10;101017.00;;;;339781;28;82411;-95
2023/02/09 00:18:48;;;;;;;;;;;1.40;99.90;2.20;101016.00;;;;336598;29;91089;-96
2023/02/09 00:19:00;;;;;;;;;;;1.40;99.90;2.20;101010.00;;;;336806;29;82659;-95
2023/02/09 00:19:12;;;;;;;;;;;1.40;99.90;2.20;101013.00;;;;335104;29;90502;-96
2023/02/09 00:19:23;;;;;;;;;;;1.40;99.90;2.20;101014.00;;;;338177;28;82462;-94
2023/02/09 00:19:35;;;;;;;;;;;1.40;99.90;2.20;101011.00;;;;340761;28;90524;-94
2023/02/09 00:19:47;;;;;;;;;;;1.40;99.90;2.30;101013.00;;;;338410;28;82306;-95
2023/02/09 00:19:59;;;;;;;;;;;1.40;99.90;2.30;101008.00;;;;339314;28;90572;-95
2023/02/09 00:20:11;;;;;;;;;;;1.40;99.90;2.10;101020.00;;;;337028;29;83342;-94
2023/02/09 00:20:22;;;;;;;;;;;1.40;99.90;2.10;101006.00;;;;336752;29;90901;-94
2023/02/09 00:20:34;;;;;;;;;;;1.40;99.90;2.10;101016.00;;;;338569;28;82450;-96
2023/02/09 00:21:02;;;;;;;;;;;1.40;99.90;2.10;101018.00;;;;337951;28;91468;-95
2023/02/09 00:21:14;;;;;;;;;;;1.40;99.90;2.10;101014.00;;;;336567;29;82590;-95
2023/02/09 00:21:26;;;;;;;;;;;1.40;99.90;2.00;101024.00;;;;337236;28;89538;-94
2023/02/09 00:21:38;;;;;;;;;;;1.40;99.90;1.90;101016.00;;;;338271;28;82622;-94
2023/02/09 00:21:49;;;;;;;;;;;1.40;99.90;2.00;101022.00;;;;336422;28;90699;-94
2023/02/09 00:22:01;;;;;;;;;;;1.30;99.90;2.00;101020.00;;;;339269;28;83497;-94
2023/02/09 00:22:13;;;;;;;;;;;1.40;99.90;2.10;101013.00;;;;339202;28;91872;-94
2023/02/09 00:22:25;;;;;;;;;;;1.40;99.90;2.10;101014.00;;;;336745;28;83508;-95
2023/02/09 00:22:37;;;;;;;;;;;1.40;99.90;2.10;101009.00;;;;335294;29;90765;-95
2023/02/09 00:22:48;;;;;;;;;;;1.40;99.90;2.10;101015.00;;;;337114;28;82478;-95
2023/02/09 00:23:00;;;;;;;;;;;1.30;99.90;2.00;101020.00;;;;336543;28;92515;-94
2023/02/09 00:23:12;;;;;;;;;;;1.40;99.90;1.90;101010.00;;;;335886;29;83524;-95
2023/02/09 00:23:24;;;;;;;;;;;1.30;99.90;2.10;101005.00;;;;335235;29;91553;-95
2023/02/09 00:23:38;;;;;;;;;;;1.40;99.90;2.00;101026.00;;;;333963;29;83458;-95
2023/02/09 00:23:49;;;;;;;;;;;1.30;99.90;2.00;101014.00;;;;336343;28;91299;-95
2023/02/09 00:24:01;;;;;;;;;;;1.30;99.90;2.00;101015.00;;;;336733;28;82549;-95
2023/02/09 00:24:13;;;;;;;;;;;1.30;99.90;2.00;101015.00;;;;337767;28;90611;-94
2023/02/09 00:24:25;;;;;;;;;;;1.30;99.90;2.10;101011.00;;;;337950;28;82555;-95
2023/02/09 00:24:37;;;;;;;;;;;1.30;99.90;2.00;101015.00;;;;336406;28;90686;-96
2023/02/09 00:24:49;;;;;;;;;;;1.30;99.90;2.10;101017.00;;;;336865;28;82433;-96
2023/02/09 00:25:01;;;;;;;;;;;1.30;99.90;2.00;101010.00;;;;334955;29;93303;-96
2023/02/09 00:25:13;;;;;;;;;;;1.30;99.90;2.00;101015.00;;;;336876;28;82415;-95
2023/02/09 00:25:24;;;;;;;;;;;1.30;99.90;2.10;101009.00;;;;334858;29;89534;-96
2023/02/09 00:25:38;;;;;;;;;;;1.30;99.90;2.10;101012.00;;;;334191;29;82323;-95
2023/02/09 00:25:50;;;;;;;;;;;1.30;99.90;2.20;101015.00;;;;337560;28;91424;-96
2023/02/09 00:26:05;;;;;;;;;;;1.30;99.90;2.20;101013.00;;;;336591;28;82526;-95
2023/02/09 00:26:17;;;;;;;;;;;1.30;99.90;2.20;101012.00;;;;336324;28;87256;-95
2023/02/09 00:26:29;;;;;;;;;;;1.30;99.90;2.20;101009.00;;;;336735;28;83474;-94
2023/02/09 00:26:40;;;;;;;;;;;1.30;99.90;2.00;101015.00;;;;337585;28;91624;-94
2023/02/09 00:26:52;;;;;;;;;;;1.30;99.90;2.10;101010.00;;;;338164;28;82579;-95
2023/02/09 00:27:04;;;;;;;;;;;1.30;99.90;2.10;101012.00;;;;334887;29;92776;-95
2023/02/09 00:27:16;;;;;;;;;;;1.30;99.90;2.20;101011.00;;;;337969;28;83287;-95
2023/02/09 00:27:28;;;;;;;;;;;1.30;99.90;2.20;101002.00;;;;337576;28;91935;-95
2023/02/09 00:27:40;;;;;;;;;;;1.30;99.90;2.20;101015.00;;;;335460;29;82516;-95
2023/02/09 00:27:52;;;;;;;;;;;1.30;99.90;2.20;101011.00;;;;339022;28;90955;-95
2023/02/09 00:28:04;;;;;;;;;;;1.40;99.90;2.10;101017.00;;;;338193;28;82483;-95
2023/02/09 00:28:16;;;;;;;;;;;1.40;99.90;2.10;101004.00;;;;334992;29;90396;-96
2023/02/09 00:28:28;;;;;;;;;;;1.30;99.90;2.00;101015.00;;;;336515;28;82513;-94
2023/02/09 00:28:40;;;;;;;;;;;1.40;99.90;2.00;101019.00;;;;334916;29;89803;-94
2023/02/09 00:28:52;;;;;;;;;;;1.30;99.90;2.00;101018.00;;;;334253;29;83771;-95
2023/02/09 00:29:04;;;;;;;;;;;1.30;99.90;2.00;101018.00;;;;336174;28;90392;-94
2023/02/09 00:29:21;;;;;;;;;;;1.30;99.90;2.00;101012.00;;;;338216;28;82363;-95
2023/02/09 00:29:32;;;;;;;;;;;1.30;99.90;1.90;101014.00;;;;336274;28;92093;-94
2023/02/09 00:29:44;;;;;;;;;;;1.30;99.90;1.90;101018.00;;;;338043;28;83388;-95
2023/02/09 00:29:56;;;;;;;;;;;1.30;99.90;1.90;101009.00;;;;335034;29;91918;-95
2023/02/09 00:30:08;;;;;;;;;;;1.30;99.90;1.80;101010.00;;;;333024;29;82300;-96
2023/02/09 00:30:20;;;;;;;;;;;1.30;99.90;1.80;101015.00;;;;336266;28;91725;-95
2023/02/09 00:30:32;;;;;;;;;;;1.30;99.90;1.90;101010.00;;;;338095;28;82498;-96
2023/02/09 00:30:44;;;;;;;;;;;1.30;99.90;2.00;101004.00;;;;335120;29;91853;-95
2023/02/09 00:30:56;;;;;;;;;;;1.30;99.90;2.10;101003.00;;;;334236;29;82485;-95
2023/02/09 00:31:10;;;;;;;;;;;1.30;99.90;2.00;101014.00;;;;333707;29;91564;-95
2023/02/09 00:31:22;;;;;;;;;;;1.30;99.90;2.00;101001.00;;;;335518;29;82580;-95
2023/02/09 00:31:34;;;;;;;;;;;1.30;99.90;1.90;101011.00;;;;334665;29;91495;-95
2023/02/09 00:31:45;;;;;;;;;;;1.30;99.90;2.00;101009.00;;;;336780;28;83390;-96
2023/02/09 00:31:57;;;;;;;;;;;1.30;99.90;2.00;101005.00;;;;337779;28;90904;-96
2023/02/09 00:32:09;;;;;;;;;;;1.30;99.90;2.00;101008.00;;;;335276;29;83499;-95
2023/02/09 00:32:21;;;;;;;;;;;1.30;99.90;1.90;101009.00;;;;333740;29;91779;-94
2023/02/09 00:32:33;;;;;;;;;;;1.30;99.90;1.90;101008.00;;;;336676;28;82599;-95
2023/02/09 00:32:44;;;;;;;;;;;1.30;99.90;1.90;101010.00;;;;336395;28;91722;-96
2023/02/09 00:32:56;;;;;;;;;;;1.30;99.90;1.90;101011.00;;;;335442;29;83367;-95
2023/02/09 00:33:08;;;;;;;;;;;1.30;99.90;2.00;101009.00;;;;337568;28;92386;-96
2023/02/09 00:33:20;;;;;;;;;;;1.20;99.90;2.00;101011.00;;;;338093;28;83198;-95
2023/02/09 00:33:32;;;;;;;;;;;1.20;99.90;2.10;101012.00;;;;334972;29;91443;-96
2023/02/09 00:33:44;;;;;;;;;;;1.30;99.90;2.10;101020.00;;;;335347;29;83494;-95
2023/02/09 00:33:55;;;;;;;;;;;1.20;99.90;2.10;101010.00;;;;335095;29;90709;-95
2023/02/09 00:34:07;;;;;;;;;;;1.30;99.90;2.00;101011.00;;;;335633;29;82467;-94
2023/02/09 00:34:19;;;;;;;;;;;1.30;99.90;2.00;101011.00;;;;337855;28;90670;-94
2023/02/09 00:34:31;;;;;;;;;;;1.20;99.90;2.00;101008.00;;;;337127;28;82613;-95
2023/02/09 00:34:43;;;;;;;;;;;1.30;99.90;2.00;101003.00;;;;335384;29;91521;-95
2023/02/09 00:34:54;;;;;;;;;;;1.20;99.90;1.90;101015.00;;;;335860;29;83225;-95
2023/02/09 00:35:07;;;;;;;;;;;1.20;99.90;2.00;101011.00;;;;336544;28;91202;-96
2023/02/09 00:35:19;;;;;;;;;;;1.20;99.90;2.00;100997.00;;;;338666;28;82471;-95
2023/02/09 00:35:31;;;;;;;;;;;1.20;99.90;2.10;101010.00;;;;336901;28;90402;-95
2023/02/09 00:35:43;;;;;;;;;;;1.30;99.90;2.20;101020.00;;;;335930;29;83559;-94
2023/02/09 00:35:54;;;;;;;;;;;1.20;99.90;2.10;101005.00;;;;335565;29;90205;-94
2023/02/09 00:36:07;;;;;;;;;;;1.30;99.90;2.10;101007.00;;;;337110;28;83537;-95
2023/02/09 00:36:19;;;;;;;;;;;1.20;99.90;2.00;101005.00;;;;336728;28;91815;-94
2023/02/09 00:36:31;;;;;;;;;;;1.30;99.90;2.00;101010.00;;;;335933;29;82501;-96
2023/02/09 00:36:42;;;;;;;;;;;1.30;99.90;1.90;101011.00;;;;336926;28;90226;-95
2023/02/09 00:36:54;;;;;;;;;;;1.30;99.90;2.10;101018.00;;;;337221;28;82423;-95
2023/02/09 00:37:06;;;;;;;;;;;1.30;99.90;2.00;101012.00;;;;335498;29;91392;-95
2023/02/09 00:37:18;;;;;;;;;;;1.30;99.90;2.00;101008.00;;;;337176;28;82366;-94
2023/02/09 00:37:29;;;;;;;;;;;1.30;99.90;2.00;101014.00;;;;337930;28;90909;-95
2023/02/09 00:37:41;;;;;;;;;;;1.30;99.90;2.00;101007.00;;;;337138;28;83533;-95
2023/02/09 00:37:53;;;;;;;;;;;1.30;99.90;2.00;101017.00;;;;336849;28;91643;-94
2023/02/09 00:38:05;;;;;;;;;;;1.30;99.90;1.90;101009.00;;;;338543;28;82545;-95
2023/02/09 00:38:16;;;;;;;;;;;1.30;99.90;1.80;101008.00;;;;336481;28;90256;-94
2023/02/09 00:38:28;;;;;;;;;;;1.20;99.90;1.90;101007.00;;;;336688;28;83507;-95
2023/02/09 00:38:40;;;;;;;;;;;1.20;99.90;1.90;101016.00;;;;337583;28;90431;-95
2023/02/09 00:38:52;;;;;;;;;;;1.20;99.90;1.90;101015.00;;;;335477;29;83380;-95
2023/02/09 00:39:04;;;;;;;;;;;1.20;99.90;1.80;101016.00;;;;336174;28;92556;-95
2023/02/09 00:39:16;;;;;;;;;;;1.20;99.90;1.80;101016.00;;;;337858;28;83586;-94
2023/02/09 00:39:28;;;;;;;;;;;1.20;99.90;1.90;101010.00;;;;335039;29;91780;-95
2023/02/09 00:39:40;;;;;;;;;;;1.20;99.90;1.90;101014.00;;;;336771;28;83484;-95
2023/02/09 00:39:52;;;;;;;;;;;1.20;99.90;1.90;101013.00;;;;336373;28;92085;-95
2023/02/09 00:40:05;;;;;;;;;;;1.20;99.90;1.90;101016.00;;;;336775;28;83395;-95
2023/02/09 00:40:17;;;;;;;;;;;1.20;99.90;2.00;101011.00;;;;337715;28;90525;-96
2023/02/09 00:40:29;;;;;;;;;;;1.20;99.90;1.90;101012.00;;;;336811;28;83447;-94
2023/02/09 00:40:41;;;;;;;;;;;1.20;99.90;1.90;101014.00;;;;333753;29;89095;-94
2023/02/09 00:40:52;;;;;;;;;;;1.20;99.90;2.00;101011.00;;;;336663;28;82534;-95
2023/02/09 00:41:04;;;;;;;;;;;1.20;99.90;2.00;101004.00;;;;334940;28;92800;-95
2023/02/09 00:41:16;;;;;;;;;;;1.20;99.90;2.00;101010.00;;;;334283;29;83368;-95
2023/02/09 00:42:04;;;;;;;;;;;1.20;99.90;1.90;101015.00;;;;338100;28;83394;-95
2023/02/09 00:42:17;;;;;;;;;;;1.20;99.90;1.90;101015.00;;;;336360;28;91883;-95
2023/02/09 00:42:28;;;;;;;;;;;1.20;99.90;1.80;101009.00;;;;338109;28;82427;-95
2023/02/09 00:42:40;;;;;;;;;;;1.20;99.90;1.70;101014.00;;;;337363;28;89135;-95
2023/02/09 00:42:52;;;;;;;;;;;1.20;99.90;1.90;101009.00;;;;335474;29;82551;-95
2023/02/09 00:43:04;;;;;;;;;;;1.10;99.90;1.80;101015.00;;;;334957;29;90276;-95
2023/02/09 00:43:16;;;;;;;;;;;1.20;99.90;1.80;101016.00;;;;335506;29;83352;-95
2023/02/09 00:43:27;;;;;;;;;;;1.20;99.90;1.90;101012.00;;;;336034;28;91642;-95
2023/02/09 00:43:39;;;;;;;;;;;1.20;99.90;1.90;101015.00;;;;336679;28;82520;-95
2023/02/09 00:43:51;;;;;;;;;;;1.10;99.90;1.90;101010.00;;;;337720;28;90338;-95
2023/02/09 00:44:03;;;;;;;;;;;1.10;99.90;1.90;101010.00;;;;338012;28;82624;-95
2023/02/09 00:44:15;;;;;;;;;;;1.10;99.90;1.80;101012.00;;;;336259;28;91467;-94
2023/02/09 00:44:26;;;;;;;;;;;1.20;99.90;1.80;101012.00;;;;336485;28;83538;-95
2023/02/09 00:44:39;;;;;;;;;;;1.10;99.90;1.80;101007.00;;;;337383;28;92293;-96
2023/02/09 00:44:50;;;;;;;;;;;1.10;99.90;1.90;101014.00;;;;336755;28;83295;-95
2023/02/09 00:45:02;;;;;;;;;;;1.10;99.90;1.90;101014.00;;;;334929;29;91009;-94
2023/02/09 00:45:14;;;;;;;;;;;1.10;99.90;1.90;101002.00;;;;336753;28;83396;-96
2023/02/09 00:45:26;;;;;;;;;;;1.10;99.90;1.90;101014.00;;;;336285;28;91262;-94
2023/02/09 00:45:38;;;;;;;;;;;1.10;99.90;1.80;101014.00;;;;334227;29;82481;-94
2023/02/09 00:45:50;;;;;;;;;;;1.20;99.90;1.90;101005.00;;;;338916;28;90831;-95
2023/02/09 00:46:02;;;;;;;;;;;1.10;99.90;1.80;101017.00;;;;338075;28;83341;-95
2023/02/09 00:46:14;;;;;;;;;;;1.10;99.90;1.70;101015.00;;;;336354;28;91746;-95
2023/02/09 00:46:26;;;;;;;;;;;1.10;99.90;1.80;101010.00;;;;339189;28;82591;-95
2023/02/09 00:46:37;;;;;;;;;;;1.10;99.90;1.90;101015.00;;;;337656;28;89837;-95
2023/02/09 00:46:51;;;;;;;;;;;1.10;99.90;2.00;101013.00;;;;335390;29;83451;-95
2023/02/09 00:47:02;;;;;;;;;;;1.10;99.90;1.90;101012.00;;;;337089;28;89609;-94
2023/02/09 00:47:14;;;;;;;;;;;1.10;99.90;2.00;101007.00;;;;336716;28;82277;-95
2023/02/09 00:47:26;;;;;;;;;;;1.20;99.90;1.90;101013.00;;;;336144;28;91147;-95
2023/02/09 00:47:38;;;;;;;;;;;1.20;99.90;1.80;101014.00;;;;338025;28;82550;-95
2023/02/09 00:47:50;;;;;;;;;;;1.10;99.90;2.00;101014.00;;;;336301;28;91784;-94
2023/02/09 00:48:02;;;;;;;;;;;1.20;99.90;2.00;101017.00;;;;335430;29;82400;-95
2023/02/09 00:48:14;;;;;;;;;;;1.20;99.90;2.00;101008.00;;;;338958;28;91895;-95
2023/02/09 00:48:26;;;;;;;;;;;1.10;99.90;2.00;101016.00;;;;335416;29;83438;-95
2023/02/09 00:48:38;;;;;;;;;;;1.20;99.90;2.00;101014.00;;;;335036;29;90487;-96
2023/02/09 00:48:50;;;;;;;;;;;1.20;99.90;2.00;101021.00;;;;337980;28;83403;-95
2023/02/09 00:49:01;;;;;;;;;;;1.20;99.90;2.00;101006.00;;;;337545;28;88873;-95
2023/02/09 00:49:14;;;;;;;;;;;1.20;99.90;2.00;101006.00;;;;335418;29;83330;-96
2023/02/09 00:49:25;;;;;;;;;;;1.20;99.90;2.00;101011.00;;;;334789;29;91735;-95
2023/02/09 00:49:38;;;;;;;;;;;1.20;99.90;1.90;101010.00;;;;338097;28;82575;-95
2023/02/09 00:49:50;;;;;;;;;;;1.20;99.90;1.90;101010.00;;;;337640;28;91900;-95
2023/02/09 00:50:05;;;;;;;;;;;1.10;99.90;1.80;101017.00;;;;336758;28;83349;-96
2023/02/09 00:50:17;;;;;;;;;;;1.10;99.90;1.70;101015.00;;;;334958;29;91683;-95
2023/02/09 00:50:29;;;;;;;;;;;1.10;99.90;1.70;101018.00;;;;338154;28;82526;-95
2023/02/09 00:50:41;;;;;;;;;;;1.10;99.90;1.60;101019.00;;;;334934;29;90624;-95
2023/02/09 00:50:53;;;;;;;;;;;1.10;99.90;1.70;101019.00;;;;337884;28;83648;-95
2023/02/09 00:51:05;;;;;;;;;;;1.10;99.90;1.80;101015.00;;;;338960;28;90306;-95
2023/02/09 00:51:19;;;;;;;;;;;1.10;99.90;2.00;101006.00;;;;336586;28;83515;-94
2023/02/09 00:51:31;;;;;;;;;;;1.10;99.90;2.00;101008.00;;;;333608;29;91918;-95
2023/02/09 00:51:43;;;;;;;;;;;1.10;99.90;2.00;101011.00;;;;336816;28;83367;-95
2023/02/09 00:51:55;;;;;;;;;;;1.10;99.90;2.00;101008.00;;;;336201;28;89473;-95
2023/02/09 00:52:07;;;;;;;;;;;1.20;99.90;2.00;101012.00;;;;336807;28;83355;-96
2023/02/09 00:52:20;;;;;;;;;;;1.20;99.90;2.00;101011.00;;;;336070;28;89434;-95
2023/02/09 00:52:32;;;;;;;;;;;1.20;99.90;2.00;101006.00;;;;336694;28;83459;-94
2023/02/09 00:52:44;;;;;;;;;;;1.20;99.90;1.90;101010.00;;;;335128;29;90354;-95
2023/02/09 00:52:56;;;;;;;;;;;1.20;99.90;1.80;101000.00;;;;336737;28;83405;-94
2023/02/09 00:53:07;;;;;;;;;;;1.20;99.90;1.80;101006.00;;;;337579;28;91648;-95
2023/02/09 00:53:20;;;;;;;;;;;1.20;99.90;1.80;101009.00;;;;335184;29;82524;-96
2023/02/09 00:53:32;;;;;;;;;;;1.20;99.90;1.60;101006.00;;;;337549;28;92211;-95
2023/02/09 00:53:43;;;;;;;;;;;1.10;99.90;1.60;101011.00;;;;335404;29;82360;-94
2023/02/09 00:53:55;;;;;;;;;;;1.10;99.90;1.70;101015.00;;;;333735;29;91668;-95
2023/02/09 00:54:07;;;;;;;;;;;1.10;99.90;1.70;101017.00;;;;335483;29;83562;-95
2023/02/09 00:54:19;;;;;;;;;;;1.10;99.90;1.70;101022.00;;;;336150;28;89427;-95
2023/02/09 00:54:30;;;;;;;;;;;1.10;99.90;1.70;101019.00;;;;338080;28;82469;-94
2023/02/09 00:54:42;;;;;;;;;;;1.10;99.90;1.60;101010.00;;;;339057;28;90102;-95
2023/02/09 00:54:54;;;;;;;;;;;1.10;99.90;1.70;101022.00;;;;339499;28;82449;-95
2023/02/09 00:55:06;;;;;;;;;;;1.10;99.90;1.80;101017.00;;;;336207;28;91540;-93
2023/02/09 00:55:18;;;;;;;;;;;1.10;99.90;1.90;101013.00;;;;335380;29;82365;-95
2023/02/09 00:55:30;;;;;;;;;;;1.10;99.90;1.80;101015.00;;;;336166;28;91562;-94
2023/02/09 00:55:41;;;;;;;;;;;1.10;99.90;1.90;101005.00;;;;335389;29;82672;-95
2023/02/09 00:55:53;;;;;;;;;;;1.10;99.90;1.80;101013.00;;;;334995;29;90646;-95
2023/02/09 00:56:05;;;;;;;;;;;1.10;99.90;1.90;101016.00;;;;336716;28;83305;-95
2023/02/09 00:56:17;;;;;;;;;;;1.10;99.90;1.80;101010.00;;;;333670;29;91169;-94
2023/02/09 00:56:29;;;;;;;;;;;1.10;99.90;1.70;101019.00;;;;337851;28;82503;-95
2023/02/09 00:56:41;;;;;;;;;;;1.10;99.90;1.70;101018.00;;;;337707;28;91894;-95
2023/02/09 00:56:53;;;;;;;;;;;1.10;99.90;1.60;101015.00;;;;335247;29;83229;-95
2023/02/09 00:57:05;;;;;;;;;;;1.10;99.90;1.60;101016.00;;;;336334;28;90466;-95
2023/02/09 00:57:17;;;;;;;;;;;1.10;99.90;1.70;101022.00;;;;335422;29;83560;-95
2023/02/09 00:57:29;;;;;;;;;;;1.10;99.90;1.70;101019.00;;;;333680;29;91798;-96
2023/02/09 00:57:40;;;;;;;;;;;1.10;99.90;1.70;101015.00;;;;335385;29;83293;-95
2023/02/09 00:57:52;;;;;;;;;;;1.10;99.90;1.70;101020.00;;;;337679;28;90850;-95
2023/02/09 00:58:04;;;;;;;;;;;1.10;99.90;1.70;101016.00;;;;336790;28;82540;-95
2023/02/09 00:58:16;;;;;;;;;;;1.00;99.90;1.60;101022.00;;;;334969;29;91584;-94
2023/02/09 00:58:28;;;;;;;;;;;1.10;99.90;1.60;101016.00;;;;336712;28;83442;-95
2023/02/09 00:58:39;;;;;;;;;;;1.00;99.90;1.70;101012.00;;;;337667;28;91741;-94
2023/02/09 00:58:51;;;;;;;;;;;1.10;99.90;1.80;101017.00;;;;336756;28;82552;-95
2023/02/09 00:59:03;;;;;;;;;;;1.10;99.90;1.70;101014.00;;;;333674;29;91793;-95
2023/02/09 00:59:15;;;;;;;;;;;1.00;99.90;1.70;101009.00;;;;336886;28;83389;-95
2023/02/09 00:59:27;;;;;;;;;;;1.10;99.90;1.80;101019.00;;;;336272;28;91518;-96
2023/02/09 00:59:39;;;;;;;;;;;1.10;99.90;1.70;101015.00;;;;334023;29;83578;-95
2023/02/09 00:59:51;;;;;;;;;;;1.00;99.90;1.80;101014.00;;;;337421;28;89597;-94
2023/02/09 01:00:06;;;;;;;;;;;1.00;99.90;1.60;101022.00;;;;335468;28;82625;-95
2023/02/09 01:00:20;;;;;;;;;;;1.00;99.90;1.70;101012.00;;;;337582;28;90878;-94
2023/02/09 01:00:32;;;;;;;;;;;1.00;99.90;1.80;101021.00;;;;337860;28;83553;-95
2023/02/09 01:00:44;;;;;;;;;;;1.00;99.90;1.80;101016.00;;;;336337;28;90703;-95
2023/02/09 01:00:56;;;;;;;;;;;1.00;99.90;1.70;101019.00;;;;336676;28;83557;-95
2023/02/09 01:01:14;;;;;;;;;;;1.00;99.90;1.70;101020.00;;;;335018;29;90423;-95
2023/02/09 01:01:25;;;;;;;;;;;1.00;99.90;1.60;101017.00;;;;338100;28;82502;-95
2023/02/09 01:01:40;;;;;;;;;;;1.00;99.90;1.70;101019.00;;;;337492;28;91918;-95
2023/02/09 01:01:52;;;;;;;;;;;1.00;99.90;1.60;101016.00;;;;336695;28;83288;-95
2023/02/09 01:02:04;;;;;;;;;;;1.00;99.90;1.50;101015.00;;;;339000;28;90014;-94
2023/02/09 01:02:16;;;;;;;;;;;1.00;99.90;1.40;101011.00;;;;339376;28;83415;-94
2023/02/09 01:02:28;;;;;;;;;;;1.00;99.90;1.40;101022.00;;;;336387;28;90638;-95
2023/02/09 01:02:40;;;;;;;;;;;1.00;99.90;1.40;101016.00;;;;335475;29;83424;-94
2023/02/09 01:02:51;;;;;;;;;;;1.00;99.90;1.50;101018.00;;;;334869;29;89115;-95
2023/02/09 01:03:03;;;;;;;;;;;1.00;99.90;1.50;101032.00;;;;337778;28;82477;-93
2023/02/09 01:03:15;;;;;;;;;;;0.90;99.90;1.50;101019.00;;;;337641;28;90763;-95